createdAt,value
2022-11-13T00:03:15.934Z,70.07
2022-11-13T00:10:16.890Z,74.20
2022-11-13T00:17:17.849Z,95.78
2022-11-13T00:24:18.665Z,98.60
2022-11-13T00:31:19.986Z,101.38
2022-11-13T00:38:21.170Z,74.60
2022-11-13T00:45:22.306Z,77.40
2022-11-13T00:52:23.042Z,76.07
2022-11-13T00:59:23.972Z,57.67
2022-11-13T01:06:27.061Z,56.63
2022-11-13T01:13:28.214Z,92.25
2022-11-13T01:20:29.096Z,72.85
2022-11-13T01:27:30.196Z,162.10
2022-11-13T01:34:31.025Z,43.15
2022-11-13T01:41:34.041Z,86.05
2022-11-13T01:48:46.908Z,39.95
2022-11-13T01:55:48.153Z,81.35
2022-11-13T02:02:49.155Z,75.00
2022-11-13T02:09:52.193Z,91.05
2022-11-13T02:16:58.527Z,58.85
2022-11-13T02:24:38.914Z,153.15
2022-11-13T02:31:49.834Z,68.88
2022-11-13T02:46:11.204Z,194.63
2022-11-13T02:53:12.064Z,156.63
2022-11-13T03:00:14.190Z,162.10
2022-11-13T03:07:15.551Z,193.88
2022-11-13T03:14:16.674Z,245.65
2022-11-13T03:21:17.703Z,268.95
2022-11-13T03:28:18.302Z,157.57
2022-11-13T03:35:19.012Z,310.30
2022-11-13T03:42:20.016Z,262.92
2022-11-13T03:49:20.886Z,229.45
2022-11-13T03:56:21.937Z,64.32
2022-11-13T04:03:23.405Z,57.85
2022-11-13T04:10:25.044Z,134.57
2022-11-13T04:17:26.136Z,147.15
2022-11-13T04:24:26.941Z,56.53
2022-11-13T04:31:27.918Z,43.67
2022-11-13T04:38:29.302Z,49.10
2022-11-13T04:45:30.186Z,62.33
2022-11-13T04:52:30.971Z,47.33
2022-11-13T04:59:31.926Z,83.35
2022-11-13T05:06:32.878Z,52.35
2022-11-13T05:13:35.674Z,48.80
2022-11-13T05:20:36.771Z,107.45
2022-11-13T05:27:37.675Z,47.85
2022-11-13T05:34:38.479Z,30.17
2022-11-13T05:41:39.553Z,24.48
2022-11-13T05:48:40.995Z,19.77
2022-11-13T05:55:41.860Z,22.83
2022-11-13T06:02:42.621Z,23.58
2022-11-13T06:09:43.208Z,25.02
2022-11-13T06:16:43.999Z,25.15
2022-11-13T06:23:44.861Z,15.02
2022-11-13T06:30:45.884Z,16.75
2022-11-13T06:37:47.085Z,13.40
2022-11-13T06:44:47.990Z,14.18
2022-11-13T06:51:49.034Z,42.53
2022-11-13T06:58:50.035Z,11.65
2022-11-13T07:05:51.285Z,40.63
2022-11-13T07:12:54.796Z,80.40
2022-11-13T07:19:55.856Z,28.55
2022-11-13T07:26:56.730Z,25.92
2022-11-13T07:33:57.574Z,29.77
2022-11-13T07:40:59.105Z,20.17
2022-11-13T07:48:01.661Z,18.77
2022-11-13T07:55:02.693Z,19.83
2022-11-13T08:02:06.621Z,50.45
2022-11-13T08:09:07.671Z,15.55
2022-11-13T08:16:08.971Z,26.42
2022-11-13T08:23:09.873Z,17.65
2022-11-13T08:30:11.543Z,11.70
2022-11-13T08:37:12.400Z,11.32
2022-11-13T08:44:14.779Z,13.98
2022-11-13T08:51:16.017Z,10.38
2022-11-13T08:58:16.923Z,15.10
2022-11-13T09:05:17.879Z,10.32
2022-11-13T09:12:19.693Z,10.48
2022-11-13T09:19:20.470Z,9.77
2022-11-13T09:26:21.478Z,10.30
2022-11-13T09:33:22.364Z,9.48
2022-11-13T09:40:30.754Z,10.00
2022-11-13T09:47:36.339Z,8.68
2022-11-13T09:54:38.485Z,9.07
2022-11-13T10:02:04.235Z,9.38
2022-11-13T10:09:49.611Z,10.27
2022-11-13T10:17:12.935Z,10.23
2022-11-13T10:24:24.593Z,8.70
2022-11-13T10:31:25.287Z,12.63
2022-11-13T10:38:40.443Z,9.13
2022-11-13T10:46:02.826Z,8.20
2022-11-13T10:53:14.412Z,8.32
2022-11-13T11:00:32.701Z,9.75
2022-11-13T11:07:41.492Z,11.32
2022-11-13T11:14:57.265Z,9.63
2022-11-13T11:22:11.556Z,9.65
2022-11-13T11:29:16.592Z,9.32
2022-11-13T11:36:46.112Z,10.30
2022-11-13T11:44:15.542Z,8.93
2022-11-13T11:51:25.647Z,9.55
2022-11-13T11:58:53.381Z,9.27
2022-11-13T12:06:11.291Z,9.23
2022-11-13T12:13:24.185Z,10.27
2022-11-13T12:20:50.649Z,10.38
2022-11-13T12:28:09.521Z,10.27
2022-11-13T12:35:16.860Z,10.50
2022-11-13T12:42:17.758Z,10.13
2022-11-13T12:49:30.623Z,11.80
2022-11-13T12:56:33.788Z,11.00
2022-11-13T13:03:41.019Z,9.82
2022-11-13T13:11:23.167Z,9.85
2022-11-13T13:18:25.364Z,9.70
2022-11-13T13:25:29.745Z,10.95
2022-11-13T13:32:41.860Z,13.23
2022-11-13T13:40:10.170Z,9.43
2022-11-13T13:47:39.785Z,10.10
2022-11-13T13:54:41.982Z,9.88
2022-11-13T14:01:54.463Z,9.73
2022-11-13T14:08:55.510Z,10.23
2022-11-13T14:16:04.055Z,9.82
2022-11-13T14:23:05.393Z,10.85
2022-11-13T14:30:19.925Z,10.10
2022-11-13T14:37:31.356Z,10.32
2022-11-13T14:44:34.763Z,10.68
2022-11-13T14:51:35.533Z,10.38
2022-11-13T14:58:37.984Z,12.65
2022-11-13T15:05:38.992Z,12.00
2022-11-13T15:12:39.774Z,12.35
2022-11-13T15:19:40.917Z,12.80
2022-11-13T15:26:41.949Z,12.13
2022-11-13T15:33:42.744Z,13.77
2022-11-13T15:40:44.357Z,12.48
2022-11-13T15:47:45.704Z,14.82
2022-11-13T15:54:47.094Z,14.25
2022-11-13T16:01:48.198Z,15.98
2022-11-13T16:08:49.557Z,19.10
2022-11-13T16:15:50.649Z,15.90
2022-11-13T16:22:55.008Z,16.60
2022-11-13T16:30:07.061Z,18.50
2022-11-13T16:37:19.850Z,15.88
2022-11-13T16:44:20.662Z,17.65
2022-11-13T16:51:21.632Z,20.45
2022-11-13T16:58:22.605Z,19.25
2022-11-13T17:05:24.082Z,22.55
2022-11-13T17:12:24.900Z,21.40
2022-11-13T17:19:25.786Z,19.45
2022-11-13T17:26:26.857Z,22.67
2022-11-13T17:33:28.116Z,19.77
2022-11-13T17:40:29.142Z,23.42
2022-11-13T17:47:30.217Z,26.45
2022-11-13T17:54:31.069Z,21.95
2022-11-13T18:01:33.551Z,23.17
2022-11-13T18:08:34.906Z,23.35
2022-11-13T18:15:37.110Z,26.85
2022-11-13T18:22:38.195Z,28.27
2022-11-13T18:29:41.238Z,27.88
2022-11-13T18:36:42.608Z,32.22
2022-11-13T18:43:45.993Z,31.83
2022-11-13T18:51:01.512Z,29.02
2022-11-13T18:58:02.773Z,32.13
2022-11-13T19:05:04.093Z,26.63
2022-11-13T19:12:10.347Z,26.90
2022-11-13T19:19:17.071Z,29.50
2022-11-13T19:26:18.246Z,27.60
2022-11-13T19:33:18.973Z,27.88
2022-11-13T19:40:19.872Z,48.50
2022-11-13T19:47:20.996Z,28.80
2022-11-13T19:54:22.228Z,31.23
2022-11-13T20:01:25.612Z,30.92
2022-11-13T20:08:28.117Z,36.65
2022-11-13T20:15:29.449Z,42.17
2022-11-13T20:22:30.563Z,39.00
2022-11-13T20:29:34.233Z,38.65
2022-11-13T20:36:35.124Z,42.08
2022-11-13T20:43:36.818Z,40.13
2022-11-13T20:50:38.201Z,42.33
2022-11-13T20:57:41.070Z,36.72
2022-11-13T21:04:42.265Z,35.08
2022-11-13T21:11:43.612Z,41.47
2022-11-13T21:18:45.490Z,50.13
2022-11-13T21:25:46.301Z,38.05
2022-11-13T21:32:47.382Z,37.95
2022-11-13T21:39:48.134Z,38.80
2022-11-13T21:46:49.244Z,33.72
2022-11-13T21:53:50.077Z,36.13
2022-11-13T22:00:51.150Z,33.92
2022-11-13T22:07:52.294Z,29.13
2022-11-13T22:14:53.625Z,28.38
2022-11-13T22:21:54.979Z,24.83
2022-11-13T22:28:56.629Z,22.60
2022-11-13T22:36:07.970Z,25.63
2022-11-13T22:43:08.914Z,28.23
2022-11-13T22:50:09.827Z,22.95
2022-11-13T22:57:10.704Z,23.80
2022-11-13T23:04:14.447Z,24.63
2022-11-13T23:11:25.309Z,21.73
2022-11-13T23:18:26.725Z,25.67
2022-11-13T23:25:27.943Z,27.17
2022-11-13T23:32:29.160Z,24.05
2022-11-13T23:39:30.184Z,24.80
2022-11-13T23:46:31.595Z,23.67
2022-11-13T23:53:32.535Z,25.83
